sensor_id;sensor_type;location;lat;lon;timestamp;P1;durP1;ratioP1;P2;durP2;ratioP2
54883;SDS011;40776;52.880;6.016;2023-08-17T00:00:13;12.18;;;4.88;;
54883;SDS011;40776;52.880;6.016;2023-08-17T00:02:40;7.75;;;3.90;;
54883;SDS011;40776;52.880;6.016;2023-08-17T00:05:06;8.10;;;3.72;;
54883;SDS011;40776;52.880;6.016;2023-08-17T00:07:33;13.80;;;5.18;;
54883;SDS011;40776;52.880;6.016;2023-08-17T00:09:59;9.05;;;4.18;;
54883;SDS011;40776;52.880;6.016;2023-08-17T00:12:25;11.43;;;4.75;;
54883;SDS011;40776;52.880;6.016;2023-08-17T00:14:51;7.22;;;4.00;;
54883;SDS011;40776;52.880;6.016;2023-08-17T00:17:18;12.55;;;4.55;;
54883;SDS011;40776;52.880;6.016;2023-08-17T00:19:44;11.00;;;4.30;;
54883;SDS011;40776;52.880;6.016;2023-08-17T00:22:10;9.27;;;4.47;;
54883;SDS011;40776;52.880;6.016;2023-08-17T00:24:36;10.38;;;4.47;;
54883;SDS011;40776;52.880;6.016;2023-08-17T00:27:02;11.57;;;3.63;;
54883;SDS011;40776;52.880;6.016;2023-08-17T00:29:29;9.65;;;4.07;;
54883;SDS011;40776;52.880;6.016;2023-08-17T00:31:55;14.15;;;4.70;;
54883;SDS011;40776;52.880;6.016;2023-08-17T00:34:21;8.98;;;4.60;;
54883;SDS011;40776;52.880;6.016;2023-08-17T00:36:47;8.77;;;4.13;;
54883;SDS011;40776;52.880;6.016;2023-08-17T00:39:13;7.22;;;4.30;;
54883;SDS011;40776;52.880;6.016;2023-08-17T00:41:39;17.35;;;4.60;;
54883;SDS011;40776;52.880;6.016;2023-08-17T00:44:05;9.52;;;4.18;;
54883;SDS011;40776;52.880;6.016;2023-08-17T00:46:32;9.77;;;4.75;;
54883;SDS011;40776;52.880;6.016;2023-08-17T00:48:58;8.23;;;4.28;;
54883;SDS011;40776;52.880;6.016;2023-08-17T00:51:25;8.68;;;4.57;;
54883;SDS011;40776;52.880;6.016;2023-08-17T00:53:53;9.77;;;4.55;;
54883;SDS011;40776;52.880;6.016;2023-08-17T00:56:19;8.57;;;4.35;;
54883;SDS011;40776;52.880;6.016;2023-08-17T00:58:45;9.32;;;4.30;;
54883;SDS011;40776;52.880;6.016;2023-08-17T01:01:11;8.82;;;4.88;;
54883;SDS011;40776;52.880;6.016;2023-08-17T01:03:38;9.88;;;4.18;;
54883;SDS011;40776;52.880;6.016;2023-08-17T01:06:05;7.18;;;4.38;;
54883;SDS011;40776;52.880;6.016;2023-08-17T01:08:32;10.07;;;3.70;;
54883;SDS011;40776;52.880;6.016;2023-08-17T01:16:12;5.82;;;3.90;;
54883;SDS011;40776;52.880;6.016;2023-08-17T01:18:40;8.07;;;3.65;;
54883;SDS011;40776;52.880;6.016;2023-08-17T01:21:07;9.80;;;4.10;;
54883;SDS011;40776;52.880;6.016;2023-08-17T01:23:34;6.95;;;4.10;;
54883;SDS011;40776;52.880;6.016;2023-08-17T01:26:00;9.23;;;4.95;;
54883;SDS011;40776;52.880;6.016;2023-08-17T01:28:26;10.60;;;4.32;;
54883;SDS011;40776;52.880;6.016;2023-08-17T01:31:00;6.70;;;3.92;;
54883;SDS011;40776;52.880;6.016;2023-08-17T01:33:31;7.00;;;4.00;;
54883;SDS011;40776;52.880;6.016;2023-08-17T01:36:05;8.18;;;4.32;;
54883;SDS011;40776;52.880;6.016;2023-08-17T01:38:34;6.38;;;4.45;;
54883;SDS011;40776;52.880;6.016;2023-08-17T01:41:00;9.52;;;4.03;;
54883;SDS011;40776;52.880;6.016;2023-08-17T01:43:27;8.00;;;3.80;;
54883;SDS011;40776;52.880;6.016;2023-08-17T01:45:54;9.38;;;4.47;;
54883;SDS011;40776;52.880;6.016;2023-08-17T01:48:20;7.30;;;4.05;;
54883;SDS011;40776;52.880;6.016;2023-08-17T01:50:46;7.07;;;4.05;;
54883;SDS011;40776;52.880;6.016;2023-08-17T01:53:12;9.45;;;4.25;;
54883;SDS011;40776;52.880;6.016;2023-08-17T01:55:39;11.75;;;4.47;;
54883;SDS011;40776;52.880;6.016;2023-08-17T01:58:05;6.75;;;4.35;;
54883;SDS011;40776;52.880;6.016;2023-08-17T02:00:31;9.68;;;4.05;;
54883;SDS011;40776;52.880;6.016;2023-08-17T02:02:57;9.15;;;4.40;;
54883;SDS011;40776;52.880;6.016;2023-08-17T02:05:23;8.65;;;4.75;;
54883;SDS011;40776;52.880;6.016;2023-08-17T02:07:50;8.85;;;4.07;;
54883;SDS011;40776;52.880;6.016;2023-08-17T02:10:16;8.43;;;4.38;;
54883;SDS011;40776;52.880;6.016;2023-08-17T02:12:42;6.93;;;4.22;;
54883;SDS011;40776;52.880;6.016;2023-08-17T02:15:08;8.90;;;4.38;;
54883;SDS011;40776;52.880;6.016;2023-08-17T02:17:34;8.95;;;4.38;;
54883;SDS011;40776;52.880;6.016;2023-08-17T02:20:00;10.02;;;4.50;;
54883;SDS011;40776;52.880;6.016;2023-08-17T02:22:28;8.02;;;3.65;;
54883;SDS011;40776;52.880;6.016;2023-08-17T02:24:54;7.32;;;4.45;;
54883;SDS011;40776;52.880;6.016;2023-08-17T02:27:20;8.38;;;4.18;;
54883;SDS011;40776;52.880;6.016;2023-08-17T02:29:46;9.65;;;4.30;;
54883;SDS011;40776;52.880;6.016;2023-08-17T02:32:12;7.28;;;4.25;;
54883;SDS011;40776;52.880;6.016;2023-08-17T02:34:38;9.80;;;4.43;;
54883;SDS011;40776;52.880;6.016;2023-08-17T02:37:05;9.05;;;4.28;;
54883;SDS011;40776;52.880;6.016;2023-08-17T02:39:31;9.07;;;4.75;;
54883;SDS011;40776;52.880;6.016;2023-08-17T02:41:57;7.07;;;4.82;;
54883;SDS011;40776;52.880;6.016;2023-08-17T02:44:23;12.25;;;5.47;;
54883;SDS011;40776;52.880;6.016;2023-08-17T02:46:49;8.05;;;4.47;;
54883;SDS011;40776;52.880;6.016;2023-08-17T02:49:15;10.70;;;5.45;;
54883;SDS011;40776;52.880;6.016;2023-08-17T02:51:41;8.88;;;4.68;;
54883;SDS011;40776;52.880;6.016;2023-08-17T02:54:07;10.23;;;4.97;;
54883;SDS011;40776;52.880;6.016;2023-08-17T02:56:33;10.25;;;5.25;;
54883;SDS011;40776;52.880;6.016;2023-08-17T02:58:59;10.60;;;4.93;;
54883;SDS011;40776;52.880;6.016;2023-08-17T03:01:25;12.27;;;5.32;;
54883;SDS011;40776;52.880;6.016;2023-08-17T03:03:51;10.82;;;4.93;;
54883;SDS011;40776;52.880;6.016;2023-08-17T03:06:17;10.43;;;5.28;;
54883;SDS011;40776;52.880;6.016;2023-08-17T03:08:43;7.60;;;5.10;;
54883;SDS011;40776;52.880;6.016;2023-08-17T03:11:09;9.00;;;5.07;;
54883;SDS011;40776;52.880;6.016;2023-08-17T03:13:36;11.50;;;5.28;;
54883;SDS011;40776;52.880;6.016;2023-08-17T03:16:02;9.90;;;5.35;;
54883;SDS011;40776;52.880;6.016;2023-08-17T03:18:28;8.45;;;4.40;;
54883;SDS011;40776;52.880;6.016;2023-08-17T03:20:54;9.48;;;4.68;;
54883;SDS011;40776;52.880;6.016;2023-08-17T03:23:20;8.07;;;4.63;;
54883;SDS011;40776;52.880;6.016;2023-08-17T03:25:50;9.95;;;5.18;;
54883;SDS011;40776;52.880;6.016;2023-08-17T03:28:16;11.65;;;5.53;;
54883;SDS011;40776;52.880;6.016;2023-08-17T03:30:42;8.32;;;5.18;;
54883;SDS011;40776;52.880;6.016;2023-08-17T03:33:08;8.30;;;5.13;;
54883;SDS011;40776;52.880;6.016;2023-08-17T03:35:35;12.50;;;5.13;;
54883;SDS011;40776;52.880;6.016;2023-08-17T03:38:01;10.80;;;4.72;;
54883;SDS011;40776;52.880;6.016;2023-08-17T03:40:27;12.25;;;5.68;;
54883;SDS011;40776;52.880;6.016;2023-08-17T03:42:53;8.63;;;4.97;;
54883;SDS011;40776;52.880;6.016;2023-08-17T03:45:19;10.15;;;5.13;;
54883;SDS011;40776;52.880;6.016;2023-08-17T03:47:45;11.80;;;4.97;;
54883;SDS011;40776;52.880;6.016;2023-08-17T03:50:11;9.98;;;4.85;;
54883;SDS011;40776;52.880;6.016;2023-08-17T03:52:37;15.38;;;6.28;;
54883;SDS011;40776;52.880;6.016;2023-08-17T03:55:03;12.02;;;4.65;;
54883;SDS011;40776;52.880;6.016;2023-08-17T03:57:31;10.20;;;4.63;;
54883;SDS011;40776;52.880;6.016;2023-08-17T03:59:57;7.80;;;4.68;;
54883;SDS011;40776;52.880;6.016;2023-08-17T04:02:23;11.35;;;4.53;;
54883;SDS011;40776;52.880;6.016;2023-08-17T04:04:49;11.35;;;5.03;;
54883;SDS011;40776;52.880;6.016;2023-08-17T04:07:22;9.77;;;4.65;;
54883;SDS011;40776;52.880;6.016;2023-08-17T04:09:48;11.70;;;4.80;;
54883;SDS011;40776;52.880;6.016;2023-08-17T04:12:14;8.43;;;4.47;;
54883;SDS011;40776;52.880;6.016;2023-08-17T04:14:40;9.63;;;5.30;;
54883;SDS011;40776;52.880;6.016;2023-08-17T04:17:06;8.43;;;5.25;;
54883;SDS011;40776;52.880;6.016;2023-08-17T04:19:32;12.20;;;4.63;;
54883;SDS011;40776;52.880;6.016;2023-08-17T04:21:58;12.60;;;5.53;;
54883;SDS011;40776;52.880;6.016;2023-08-17T04:24:24;9.30;;;5.43;;
54883;SDS011;40776;52.880;6.016;2023-08-17T04:26:50;10.27;;;6.20;;
54883;SDS011;40776;52.880;6.016;2023-08-17T04:29:16;13.68;;;5.28;;
54883;SDS011;40776;52.880;6.016;2023-08-17T04:31:43;12.85;;;4.80;;
54883;SDS011;40776;52.880;6.016;2023-08-17T04:34:09;9.20;;;4.22;;
54883;SDS011;40776;52.880;6.016;2023-08-17T04:36:35;6.78;;;4.68;;
54883;SDS011;40776;52.880;6.016;2023-08-17T04:39:01;9.60;;;5.72;;
54883;SDS011;40776;52.880;6.016;2023-08-17T04:41:29;8.82;;;5.25;;
54883;SDS011;40776;52.880;6.016;2023-08-17T04:43:55;6.50;;;4.13;;
54883;SDS011;40776;52.880;6.016;2023-08-17T04:46:21;11.50;;;4.80;;
54883;SDS011;40776;52.880;6.016;2023-08-17T04:48:47;6.88;;;4.30;;
54883;SDS011;40776;52.880;6.016;2023-08-17T04:51:15;9.23;;;4.15;;
54883;SDS011;40776;52.880;6.016;2023-08-17T04:53:41;9.10;;;4.40;;
54883;SDS011;40776;52.880;6.016;2023-08-17T04:56:07;7.88;;;3.85;;
54883;SDS011;40776;52.880;6.016;2023-08-17T04:58:33;6.63;;;4.50;;
54883;SDS011;40776;52.880;6.016;2023-08-17T05:01:00;8.43;;;4.38;;
54883;SDS011;40776;52.880;6.016;2023-08-17T05:03:26;12.00;;;4.55;;
54883;SDS011;40776;52.880;6.016;2023-08-17T05:05:52;7.80;;;3.95;;
54883;SDS011;40776;52.880;6.016;2023-08-17T05:08:18;11.10;;;4.00;;
54883;SDS011;40776;52.880;6.016;2023-08-17T05:10:46;11.52;;;4.07;;
54883;SDS011;40776;52.880;6.016;2023-08-17T05:13:12;6.40;;;3.55;;
54883;SDS011;40776;52.880;6.016;2023-08-17T05:15:38;5.72;;;3.70;;
54883;SDS011;40776;52.880;6.016;2023-08-17T05:18:04;8.50;;;3.90;;
54883;SDS011;40776;52.880;6.016;2023-08-17T05:20:30;8.35;;;3.42;;
54883;SDS011;40776;52.880;6.016;2023-08-17T05:22:56;8.43;;;4.38;;
54883;SDS011;40776;52.880;6.016;2023-08-17T05:25:23;6.97;;;3.65;;
54883;SDS011;40776;52.880;6.016;2023-08-17T05:27:51;8.95;;;4.15;;
54883;SDS011;40776;52.880;6.016;2023-08-17T05:30:17;10.00;;;3.60;;
54883;SDS011;40776;52.880;6.016;2023-08-17T05:32:43;8.50;;;3.33;;
54883;SDS011;40776;52.880;6.016;2023-08-17T05:35:09;7.70;;;3.35;;
54883;SDS011;40776;52.880;6.016;2023-08-17T05:37:35;9.40;;;3.67;;
54883;SDS011;40776;52.880;6.016;2023-08-17T05:40:01;6.90;;;4.13;;
54883;SDS011;40776;52.880;6.016;2023-08-17T05:42:29;9.40;;;3.60;;
54883;SDS011;40776;52.880;6.016;2023-08-17T05:44:55;6.63;;;3.22;;
54883;SDS011;40776;52.880;6.016;2023-08-17T05:47:21;8.10;;;3.47;;
54883;SDS011;40776;52.880;6.016;2023-08-17T05:49:47;8.73;;;3.75;;
54883;SDS011;40776;52.880;6.016;2023-08-17T05:52:13;7.05;;;3.05;;
54883;SDS011;40776;52.880;6.016;2023-08-17T05:54:40;8.30;;;3.53;;
54883;SDS011;40776;52.880;6.016;2023-08-17T05:57:07;7.28;;;3.00;;
54883;SDS011;40776;52.880;6.016;2023-08-17T05:59:33;12.82;;;3.35;;
54883;SDS011;40776;52.880;6.016;2023-08-17T06:01:59;7.68;;;3.08;;
54883;SDS011;40776;52.880;6.016;2023-08-17T06:04:25;8.13;;;3.13;;
54883;SDS011;40776;52.880;6.016;2023-08-17T06:06:51;6.75;;;3.15;;
54883;SDS011;40776;52.880;6.016;2023-08-17T06:09:17;7.50;;;3.33;;
54883;SDS011;40776;52.880;6.016;2023-08-17T06:11:43;8.90;;;3.13;;
54883;SDS011;40776;52.880;6.016;2023-08-17T06:14:09;7.03;;;3.75;;
54883;SDS011;40776;52.880;6.016;2023-08-17T06:16:35;7.65;;;3.22;;
54883;SDS011;40776;52.880;6.016;2023-08-17T06:19:02;6.32;;;2.85;;
54883;SDS011;40776;52.880;6.016;2023-08-17T06:21:28;5.57;;;2.47;;
54883;SDS011;40776;52.880;6.016;2023-08-17T06:23:54;8.00;;;3.47;;
54883;SDS011;40776;52.880;6.016;2023-08-17T06:26:20;9.23;;;3.60;;
54883;SDS011;40776;52.880;6.016;2023-08-17T06:28:46;7.22;;;2.63;;
54883;SDS011;40776;52.880;6.016;2023-08-17T06:31:14;6.82;;;2.60;;
54883;SDS011;40776;52.880;6.016;2023-08-17T06:33:40;9.23;;;2.42;;
54883;SDS011;40776;52.880;6.016;2023-08-17T06:36:06;4.78;;;2.42;;
54883;SDS011;40776;52.880;6.016;2023-08-17T06:38:32;7.50;;;2.97;;
54883;SDS011;40776;52.880;6.016;2023-08-17T06:40:58;6.20;;;2.45;;
54883;SDS011;40776;52.880;6.016;2023-08-17T06:43:24;4.00;;;2.28;;
54883;SDS011;40776;52.880;6.016;2023-08-17T06:45:50;8.00;;;2.30;;
54883;SDS011;40776;52.880;6.016;2023-08-17T06:48:16;6.10;;;2.50;;
54883;SDS011;40776;52.880;6.016;2023-08-17T06:50:42;9.95;;;2.42;;
54883;SDS011;40776;52.880;6.016;2023-08-17T06:53:08;7.70;;;3.25;;
54883;SDS011;40776;52.880;6.016;2023-08-17T06:55:35;6.85;;;2.53;;
54883;SDS011;40776;52.880;6.016;2023-08-17T06:58:01;7.70;;;2.38;;
54883;SDS011;40776;52.880;6.016;2023-08-17T07:00:27;7.80;;;2.22;;
54883;SDS011;40776;52.880;6.016;2023-08-17T07:02:54;10.00;;;2.42;;
54883;SDS011;40776;52.880;6.016;2023-08-17T07:05:20;7.03;;;2.20;;
54883;SDS011;40776;52.880;6.016;2023-08-17T07:07:46;8.10;;;2.25;;
54883;SDS011;40776;52.880;6.016;2023-08-17T07:10:13;7.28;;;2.95;;
54883;SDS011;40776;52.880;6.016;2023-08-17T07:12:39;4.55;;;1.80;;
54883;SDS011;40776;52.880;6.016;2023-08-17T07:15:06;7.53;;;2.45;;
54883;SDS011;40776;52.880;6.016;2023-08-17T07:17:32;7.78;;;2.47;;
54883;SDS011;40776;52.880;6.016;2023-08-17T07:20:02;6.88;;;1.95;;
54883;SDS011;40776;52.880;6.016;2023-08-17T07:22:29;7.25;;;2.47;;
54883;SDS011;40776;52.880;6.016;2023-08-17T07:24:55;7.75;;;2.10;;
54883;SDS011;40776;52.880;6.016;2023-08-17T07:27:21;5.88;;;2.45;;
54883;SDS011;40776;52.880;6.016;2023-08-17T07:29:47;6.25;;;2.28;;
54883;SDS011;40776;52.880;6.016;2023-08-17T07:32:13;3.00;;;1.70;;
54883;SDS011;40776;52.880;6.016;2023-08-17T07:34:39;4.07;;;2.10;;
54883;SDS011;40776;52.880;6.016;2023-08-17T07:37:05;9.13;;;2.00;;
54883;SDS011;40776;52.880;6.016;2023-08-17T07:39:32;6.97;;;2.10;;
54883;SDS011;40776;52.880;6.016;2023-08-17T07:41:58;6.13;;;1.48;;
54883;SDS011;40776;52.880;6.016;2023-08-17T07:44:24;3.13;;;1.30;;
54883;SDS011;40776;52.880;6.016;2023-08-17T07:46:50;6.63;;;1.52;;
54883;SDS011;40776;52.880;6.016;2023-08-17T07:49:16;8.63;;;1.90;;
54883;SDS011;40776;52.880;6.016;2023-08-17T07:51:42;10.32;;;1.60;;
54883;SDS011;40776;52.880;6.016;2023-08-17T07:54:08;5.40;;;1.55;;
54883;SDS011;40776;52.880;6.016;2023-08-17T07:56:34;4.93;;;1.73;;
54883;SDS011;40776;52.880;6.016;2023-08-17T07:59:00;8.27;;;2.20;;
54883;SDS011;40776;52.880;6.016;2023-08-17T08:01:26;4.32;;;1.52;;
54883;SDS011;40776;52.880;6.016;2023-08-17T08:03:52;8.60;;;1.55;;
54883;SDS011;40776;52.880;6.016;2023-08-17T08:06:18;5.78;;;1.50;;
54883;SDS011;40776;52.880;6.016;2023-08-17T08:08:45;5.85;;;2.88;;
54883;SDS011;40776;52.880;6.016;2023-08-17T08:11:11;6.95;;;1.77;;
54883;SDS011;40776;52.880;6.016;2023-08-17T08:13:37;8.52;;;2.60;;
54883;SDS011;40776;52.880;6.016;2023-08-17T08:16:03;7.25;;;1.77;;
54883;SDS011;40776;52.880;6.016;2023-08-17T08:18:29;8.23;;;1.90;;
54883;SDS011;40776;52.880;6.016;2023-08-17T08:20:55;6.72;;;2.05;;
54883;SDS011;40776;52.880;6.016;2023-08-17T08:23:21;4.93;;;1.70;;
54883;SDS011;40776;52.880;6.016;2023-08-17T08:25:47;5.57;;;1.55;;
54883;SDS011;40776;52.880;6.016;2023-08-17T08:28:13;10.32;;;1.55;;
54883;SDS011;40776;52.880;6.016;2023-08-17T08:30:39;5.07;;;1.45;;
54883;SDS011;40776;52.880;6.016;2023-08-17T08:33:05;7.50;;;1.50;;
54883;SDS011;40776;52.880;6.016;2023-08-17T08:35:31;4.85;;;1.48;;
54883;SDS011;40776;52.880;6.016;2023-08-17T08:38:06;5.05;;;1.10;;
54883;SDS011;40776;52.880;6.016;2023-08-17T08:40:32;12.50;;;1.50;;
54883;SDS011;40776;52.880;6.016;2023-08-17T08:43:03;4.88;;;1.30;;
54883;SDS011;40776;52.880;6.016;2023-08-17T08:45:30;5.35;;;1.60;;
54883;SDS011;40776;52.880;6.016;2023-08-17T08:47:56;5.95;;;1.60;;
54883;SDS011;40776;52.880;6.016;2023-08-17T08:50:23;6.70;;;1.30;;
54883;SDS011;40776;52.880;6.016;2023-08-17T08:53:00;3.55;;;1.00;;
54883;SDS011;40776;52.880;6.016;2023-08-17T08:55:28;5.72;;;1.13;;
54883;SDS011;40776;52.880;6.016;2023-08-17T08:57:55;5.97;;;1.17;;
54883;SDS011;40776;52.880;6.016;2023-08-17T09:00:21;4.95;;;1.10;;
54883;SDS011;40776;52.880;6.016;2023-08-17T09:02:48;5.30;;;1.63;;
54883;SDS011;40776;52.880;6.016;2023-08-17T09:05:14;4.15;;;1.23;;
54883;SDS011;40776;52.880;6.016;2023-08-17T09:07:41;8.32;;;1.17;;
54883;SDS011;40776;52.880;6.016;2023-08-17T09:10:08;3.72;;;1.45;;
54883;SDS011;40776;52.880;6.016;2023-08-17T09:12:35;4.53;;;1.65;;
54883;SDS011;40776;52.880;6.016;2023-08-17T09:15:01;3.47;;;1.20;;
54883;SDS011;40776;52.880;6.016;2023-08-17T09:17:27;5.50;;;1.30;;
54883;SDS011;40776;52.880;6.016;2023-08-17T09:19:54;8.55;;;1.38;;
54883;SDS011;40776;52.880;6.016;2023-08-17T09:22:39;6.47;;;1.27;;
54883;SDS011;40776;52.880;6.016;2023-08-17T09:25:05;2.50;;;0.90;;
54883;SDS011;40776;52.880;6.016;2023-08-17T09:27:32;3.08;;;1.13;;
54883;SDS011;40776;52.880;6.016;2023-08-17T09:30:08;3.95;;;0.93;;
54883;SDS011;40776;52.880;6.016;2023-08-17T09:32:34;6.25;;;1.65;;
54883;SDS011;40776;52.880;6.016;2023-08-17T09:35:04;7.05;;;1.52;;
54883;SDS011;40776;52.880;6.016;2023-08-17T09:39:57;4.63;;;1.23;;
54883;SDS011;40776;52.880;6.016;2023-08-17T09:42:23;4.60;;;1.00;;
54883;SDS011;40776;52.880;6.016;2023-08-17T09:44:50;5.88;;;1.23;;
54883;SDS011;40776;52.880;6.016;2023-08-17T09:47:20;3.42;;;1.17;;
54883;SDS011;40776;52.880;6.016;2023-08-17T09:49:48;6.20;;;1.17;;
54883;SDS011;40776;52.880;6.016;2023-08-17T09:52:14;4.95;;;1.35;;
54883;SDS011;40776;52.880;6.016;2023-08-17T09:54:40;4.00;;;0.90;;
54883;SDS011;40776;52.880;6.016;2023-08-17T09:57:07;5.25;;;1.38;;
54883;SDS011;40776;52.880;6.016;2023-08-17T09:59:34;6.65;;;1.10;;
54883;SDS011;40776;52.880;6.016;2023-08-17T10:01:59;4.38;;;1.17;;
54883;SDS011;40776;52.880;6.016;2023-08-17T10:04:29;3.88;;;1.27;;
54883;SDS011;40776;52.880;6.016;2023-08-17T10:07:03;6.35;;;1.52;;
54883;SDS011;40776;52.880;6.016;2023-08-17T10:09:35;5.95;;;1.52;;
54883;SDS011;40776;52.880;6.016;2023-08-17T10:12:05;2.97;;;1.10;;
54883;SDS011;40776;52.880;6.016;2023-08-17T10:14:36;4.35;;;1.20;;
54883;SDS011;40776;52.880;6.016;2023-08-17T10:17:11;4.38;;;1.02;;
54883;SDS011;40776;52.880;6.016;2023-08-17T10:19:49;4.15;;;1.63;;
54883;SDS011;40776;52.880;6.016;2023-08-17T10:24:43;3.30;;;1.30;;
54883;SDS011;40776;52.880;6.016;2023-08-17T10:27:10;5.00;;;0.98;;
54883;SDS011;40776;52.880;6.016;2023-08-17T10:29:38;6.85;;;1.20;;
54883;SDS011;40776;52.880;6.016;2023-08-17T10:32:05;6.13;;;1.15;;
54883;SDS011;40776;52.880;6.016;2023-08-17T10:34:34;5.65;;;1.42;;
54883;SDS011;40776;52.880;6.016;2023-08-17T10:37:01;3.35;;;0.95;;
54883;SDS011;40776;52.880;6.016;2023-08-17T10:39:28;3.97;;;1.17;;
54883;SDS011;40776;52.880;6.016;2023-08-17T10:41:54;3.63;;;1.10;;
54883;SDS011;40776;52.880;6.016;2023-08-17T10:49:56;3.08;;;1.10;;
54883;SDS011;40776;52.880;6.016;2023-08-17T10:52:30;6.00;;;1.35;;
54883;SDS011;40776;52.880;6.016;2023-08-17T10:54:56;5.75;;;1.17;;
54883;SDS011;40776;52.880;6.016;2023-08-17T10:57:35;6.25;;;1.67;;
54883;SDS011;40776;52.880;6.016;2023-08-17T11:00:26;5.65;;;1.35;;
54883;SDS011;40776;52.880;6.016;2023-08-17T11:03:00;3.25;;;1.20;;
54883;SDS011;40776;52.880;6.016;2023-08-17T11:08:06;3.53;;;1.17;;
54883;SDS011;40776;52.880;6.016;2023-08-17T11:10:32;7.93;;;1.27;;
54883;SDS011;40776;52.880;6.016;2023-08-17T11:12:58;7.53;;;1.60;;
54883;SDS011;40776;52.880;6.016;2023-08-17T11:15:25;3.42;;;1.25;;
54883;SDS011;40776;52.880;6.016;2023-08-17T11:17:51;5.38;;;1.98;;
54883;SDS011;40776;52.880;6.016;2023-08-17T11:20:17;7.25;;;1.45;;
54883;SDS011;40776;52.880;6.016;2023-08-17T11:22:43;3.65;;;1.20;;
54883;SDS011;40776;52.880;6.016;2023-08-17T11:25:11;3.72;;;1.25;;
54883;SDS011;40776;52.880;6.016;2023-08-17T11:27:37;3.92;;;1.00;;
54883;SDS011;40776;52.880;6.016;2023-08-17T11:30:03;3.53;;;1.50;;
54883;SDS011;40776;52.880;6.016;2023-08-17T11:32:30;5.57;;;1.20;;
54883;SDS011;40776;52.880;6.016;2023-08-17T11:34:56;3.08;;;1.10;;
54883;SDS011;40776;52.880;6.016;2023-08-17T11:37:21;5.20;;;1.40;;
54883;SDS011;40776;52.880;6.016;2023-08-17T11:39:48;3.78;;;1.33;;
54883;SDS011;40776;52.880;6.016;2023-08-17T11:42:14;4.28;;;1.25;;
54883;SDS011;40776;52.880;6.016;2023-08-17T11:44:41;4.40;;;1.00;;
54883;SDS011;40776;52.880;6.016;2023-08-17T11:47:07;5.35;;;1.60;;
54883;SDS011;40776;52.880;6.016;2023-08-17T11:49:33;5.22;;;1.60;;
54883;SDS011;40776;52.880;6.016;2023-08-17T11:51:59;5.50;;;1.70;;
54883;SDS011;40776;52.880;6.016;2023-08-17T11:54:25;3.33;;;1.15;;
54883;SDS011;40776;52.880;6.016;2023-08-17T11:56:51;2.22;;;1.17;;
54883;SDS011;40776;52.880;6.016;2023-08-17T11:59:16;5.95;;;1.50;;
54883;SDS011;40776;52.880;6.016;2023-08-17T12:01:45;6.35;;;1.50;;
54883;SDS011;40776;52.880;6.016;2023-08-17T12:04:11;4.65;;;1.48;;
54883;SDS011;40776;52.880;6.016;2023-08-17T12:06:40;3.90;;;1.40;;
54883;SDS011;40776;52.880;6.016;2023-08-17T12:09:08;4.43;;;1.45;;
54883;SDS011;40776;52.880;6.016;2023-08-17T12:11:34;6.30;;;1.45;;
54883;SDS011;40776;52.880;6.016;2023-08-17T12:14:07;4.85;;;1.40;;
54883;SDS011;40776;52.880;6.016;2023-08-17T12:16:44;3.60;;;1.33;;
54883;SDS011;40776;52.880;6.016;2023-08-17T12:19:11;5.00;;;1.67;;
54883;SDS011;40776;52.880;6.016;2023-08-17T12:21:36;3.88;;;1.45;;
54883;SDS011;40776;52.880;6.016;2023-08-17T12:24:05;4.00;;;1.50;;
54883;SDS011;40776;52.880;6.016;2023-08-17T12:26:31;5.03;;;1.50;;
54883;SDS011;40776;52.880;6.016;2023-08-17T12:28:59;4.07;;;1.60;;
54883;SDS011;40776;52.880;6.016;2023-08-17T12:31:25;7.00;;;1.60;;
54883;SDS011;40776;52.880;6.016;2023-08-17T12:33:54;4.25;;;1.52;;
54883;SDS011;40776;52.880;6.016;2023-08-17T12:36:20;5.82;;;1.50;;
54883;SDS011;40776;52.880;6.016;2023-08-17T12:38:46;3.72;;;1.60;;
54883;SDS011;40776;52.880;6.016;2023-08-17T12:41:13;4.05;;;1.40;;
54883;SDS011;40776;52.880;6.016;2023-08-17T12:43:39;6.28;;;1.40;;
54883;SDS011;40776;52.880;6.016;2023-08-17T12:46:05;5.35;;;1.73;;
54883;SDS011;40776;52.880;6.016;2023-08-17T12:48:31;5.63;;;1.88;;
54883;SDS011;40776;52.880;6.016;2023-08-17T12:50:57;6.68;;;1.52;;
54883;SDS011;40776;52.880;6.016;2023-08-17T12:53:23;4.82;;;1.50;;
54883;SDS011;40776;52.880;6.016;2023-08-17T12:55:49;6.03;;;2.00;;
54883;SDS011;40776;52.880;6.016;2023-08-17T12:58:15;3.72;;;1.48;;
54883;SDS011;40776;52.880;6.016;2023-08-17T13:00:41;4.22;;;1.48;;
54883;SDS011;40776;52.880;6.016;2023-08-17T13:03:07;5.53;;;1.85;;
54883;SDS011;40776;52.880;6.016;2023-08-17T13:05:33;5.40;;;1.63;;
54883;SDS011;40776;52.880;6.016;2023-08-17T13:07:59;4.53;;;1.63;;
54883;SDS011;40776;52.880;6.016;2023-08-17T13:10:25;4.93;;;1.80;;
54883;SDS011;40776;52.880;6.016;2023-08-17T13:12:52;5.45;;;2.15;;
54883;SDS011;40776;52.880;6.016;2023-08-17T13:15:25;8.15;;;1.80;;
54883;SDS011;40776;52.880;6.016;2023-08-17T13:17:51;7.30;;;2.40;;
54883;SDS011;40776;52.880;6.016;2023-08-17T13:20:17;8.25;;;2.00;;
54883;SDS011;40776;52.880;6.016;2023-08-17T13:22:43;5.38;;;1.67;;
54883;SDS011;40776;52.880;6.016;2023-08-17T13:25:09;4.90;;;1.80;;
54883;SDS011;40776;52.880;6.016;2023-08-17T13:27:35;5.57;;;1.98;;
54883;SDS011;40776;52.880;6.016;2023-08-17T13:30:01;7.82;;;2.42;;
54883;SDS011;40776;52.880;6.016;2023-08-17T13:32:28;5.35;;;1.55;;
54883;SDS011;40776;52.880;6.016;2023-08-17T13:34:54;7.15;;;1.90;;
54883;SDS011;40776;52.880;6.016;2023-08-17T13:37:20;8.60;;;1.83;;
54883;SDS011;40776;52.880;6.016;2023-08-17T13:39:46;8.88;;;1.55;;
54883;SDS011;40776;52.880;6.016;2023-08-17T13:42:12;7.18;;;1.80;;
54883;SDS011;40776;52.880;6.016;2023-08-17T13:44:38;5.38;;;2.05;;
54883;SDS011;40776;52.880;6.016;2023-08-17T13:47:04;7.03;;;1.80;;
54883;SDS011;40776;52.880;6.016;2023-08-17T13:49:30;4.75;;;1.42;;
54883;SDS011;40776;52.880;6.016;2023-08-17T13:51:56;4.05;;;1.92;;
54883;SDS011;40776;52.880;6.016;2023-08-17T13:54:23;4.25;;;1.90;;
54883;SDS011;40776;52.880;6.016;2023-08-17T13:56:49;4.68;;;2.05;;
54883;SDS011;40776;52.880;6.016;2023-08-17T13:59:15;6.15;;;2.15;;
54883;SDS011;40776;52.880;6.016;2023-08-17T14:01:41;5.55;;;1.92;;
54883;SDS011;40776;52.880;6.016;2023-08-17T14:04:07;4.35;;;1.90;;
54883;SDS011;40776;52.880;6.016;2023-08-17T14:06:37;7.13;;;2.50;;
54883;SDS011;40776;52.880;6.016;2023-08-17T14:09:04;6.55;;;2.15;;
54883;SDS011;40776;52.880;6.016;2023-08-17T14:11:30;5.13;;;2.10;;
54883;SDS011;40776;52.880;6.016;2023-08-17T14:13:56;4.35;;;1.95;;
54883;SDS011;40776;52.880;6.016;2023-08-17T14:16:22;4.38;;;2.55;;
54883;SDS011;40776;52.880;6.016;2023-08-17T14:18:48;7.35;;;1.90;;
54883;SDS011;40776;52.880;6.016;2023-08-17T14:21:14;5.22;;;2.00;;
54883;SDS011;40776;52.880;6.016;2023-08-17T14:23:40;6.03;;;2.10;;
54883;SDS011;40776;52.880;6.016;2023-08-17T14:26:06;6.35;;;2.00;;
54883;SDS011;40776;52.880;6.016;2023-08-17T14:28:32;4.95;;;2.05;;
54883;SDS011;40776;52.880;6.016;2023-08-17T14:30:58;8.07;;;2.50;;
54883;SDS011;40776;52.880;6.016;2023-08-17T14:33:24;2.80;;;1.83;;
54883;SDS011;40776;52.880;6.016;2023-08-17T14:35:50;5.03;;;2.17;;
54883;SDS011;40776;52.880;6.016;2023-08-17T14:38:16;6.47;;;2.40;;
54883;SDS011;40776;52.880;6.016;2023-08-17T14:40:43;4.30;;;2.08;;
54883;SDS011;40776;52.880;6.016;2023-08-17T14:43:13;4.30;;;2.00;;
54883;SDS011;40776;52.880;6.016;2023-08-17T14:45:39;5.03;;;1.88;;
54883;SDS011;40776;52.880;6.016;2023-08-17T14:48:06;7.80;;;2.30;;
54883;SDS011;40776;52.880;6.016;2023-08-17T14:50:33;7.43;;;2.80;;
54883;SDS011;40776;52.880;6.016;2023-08-17T14:52:59;6.65;;;2.45;;
54883;SDS011;40776;52.880;6.016;2023-08-17T14:55:28;7.18;;;2.53;;
54883;SDS011;40776;52.880;6.016;2023-08-17T14:57:54;3.78;;;2.25;;
54883;SDS011;40776;52.880;6.016;2023-08-17T15:00:20;4.35;;;2.30;;